sensor_id;sensor_type;location;lat;lon;timestamp;P1;durP1;ratioP1;P2;durP2;ratioP2
58091;SDS011;43896;48.178;11.578;2023-04-24T00:01:14;1.92;;;0.70;;
58091;SDS011;43896;48.178;11.578;2023-04-24T00:03:40;1.85;;;0.75;;
58091;SDS011;43896;48.178;11.578;2023-04-24T00:06:06;1.33;;;0.63;;
58091;SDS011;43896;48.178;11.578;2023-04-24T00:08:33;1.92;;;0.77;;
58091;SDS011;43896;48.178;11.578;2023-04-24T00:10:58;1.83;;;0.60;;
58091;SDS011;43896;48.178;11.578;2023-04-24T00:13:24;1.88;;;0.73;;
58091;SDS011;43896;48.178;11.578;2023-04-24T00:15:49;1.88;;;0.60;;
58091;SDS011;43896;48.178;11.578;2023-04-24T00:18:14;1.88;;;0.73;;
58091;SDS011;43896;48.178;11.578;2023-04-24T00:20:40;1.38;;;0.65;;
58091;SDS011;43896;48.178;11.578;2023-04-24T00:23:05;1.52;;;0.57;;
58091;SDS011;43896;48.178;11.578;2023-04-24T00:25:31;1.60;;;0.63;;
58091;SDS011;43896;48.178;11.578;2023-04-24T00:27:56;1.83;;;0.55;;
58091;SDS011;43896;48.178;11.578;2023-04-24T00:30:21;1.70;;;0.60;;
58091;SDS011;43896;48.178;11.578;2023-04-24T00:32:47;1.48;;;0.63;;
58091;SDS011;43896;48.178;11.578;2023-04-24T00:35:12;1.90;;;0.65;;
58091;SDS011;43896;48.178;11.578;2023-04-24T00:37:37;0.90;;;0.60;;
58091;SDS011;43896;48.178;11.578;2023-04-24T00:40:03;1.33;;;0.50;;
58091;SDS011;43896;48.178;11.578;2023-04-24T00:42:29;0.95;;;0.50;;
58091;SDS011;43896;48.178;11.578;2023-04-24T00:44:54;1.30;;;0.52;;
58091;SDS011;43896;48.178;11.578;2023-04-24T00:47:21;2.08;;;0.50;;
58091;SDS011;43896;48.178;11.578;2023-04-24T00:49:47;1.42;;;0.50;;
58091;SDS011;43896;48.178;11.578;2023-04-24T00:52:12;1.35;;;0.50;;
58091;SDS011;43896;48.178;11.578;2023-04-24T00:54:42;1.27;;;0.40;;
58091;SDS011;43896;48.178;11.578;2023-04-24T00:57:08;1.50;;;0.60;;
58091;SDS011;43896;48.178;11.578;2023-04-24T00:59:33;1.30;;;0.43;;
58091;SDS011;43896;48.178;11.578;2023-04-24T01:01:59;1.70;;;0.50;;
58091;SDS011;43896;48.178;11.578;2023-04-24T01:04:24;1.77;;;0.80;;
58091;SDS011;43896;48.178;11.578;2023-04-24T01:06:51;1.25;;;0.50;;
58091;SDS011;43896;48.178;11.578;2023-04-24T01:09:17;0.70;;;0.40;;
58091;SDS011;43896;48.178;11.578;2023-04-24T01:11:43;0.88;;;0.40;;
58091;SDS011;43896;48.178;11.578;2023-04-24T01:14:08;0.73;;;0.40;;
58091;SDS011;43896;48.178;11.578;2023-04-24T01:16:34;0.60;;;0.35;;
58091;SDS011;43896;48.178;11.578;2023-04-24T01:19:00;1.00;;;0.40;;
58091;SDS011;43896;48.178;11.578;2023-04-24T01:21:26;1.25;;;0.40;;
58091;SDS011;43896;48.178;11.578;2023-04-24T01:23:54;1.02;;;0.40;;
58091;SDS011;43896;48.178;11.578;2023-04-24T01:26:20;0.95;;;0.40;;
58091;SDS011;43896;48.178;11.578;2023-04-24T01:28:46;1.65;;;0.50;;
58091;SDS011;43896;48.178;11.578;2023-04-24T01:31:13;1.33;;;0.30;;
58091;SDS011;43896;48.178;11.578;2023-04-24T01:33:40;1.58;;;0.40;;
58091;SDS011;43896;48.178;11.578;2023-04-24T01:36:07;2.13;;;0.40;;
58091;SDS011;43896;48.178;11.578;2023-04-24T01:38:35;0.80;;;0.30;;
58091;SDS011;43896;48.178;11.578;2023-04-24T01:41:00;1.20;;;0.30;;
58091;SDS011;43896;48.178;11.578;2023-04-24T01:43:26;1.67;;;0.43;;
58091;SDS011;43896;48.178;11.578;2023-04-24T01:45:51;0.68;;;0.30;;
58091;SDS011;43896;48.178;11.578;2023-04-24T01:48:16;0.70;;;0.30;;
58091;SDS011;43896;48.178;11.578;2023-04-24T01:50:42;0.95;;;0.30;;
58091;SDS011;43896;48.178;11.578;2023-04-24T01:53:07;1.48;;;0.30;;
58091;SDS011;43896;48.178;11.578;2023-04-24T01:55:33;2.25;;;0.40;;
58091;SDS011;43896;48.178;11.578;2023-04-24T01:57:58;0.80;;;0.28;;
58091;SDS011;43896;48.178;11.578;2023-04-24T02:00:24;0.85;;;0.30;;
58091;SDS011;43896;48.178;11.578;2023-04-24T02:02:50;1.08;;;0.55;;
58091;SDS011;43896;48.178;11.578;2023-04-24T02:05:15;0.68;;;0.30;;
58091;SDS011;43896;48.178;11.578;2023-04-24T02:07:40;1.00;;;0.30;;
58091;SDS011;43896;48.178;11.578;2023-04-24T02:10:06;0.70;;;0.30;;
58091;SDS011;43896;48.178;11.578;2023-04-24T02:12:31;1.92;;;0.30;;
58091;SDS011;43896;48.178;11.578;2023-04-24T02:14:57;1.75;;;0.40;;
58091;SDS011;43896;48.178;11.578;2023-04-24T02:17:22;2.20;;;0.30;;
58091;SDS011;43896;48.178;11.578;2023-04-24T02:19:47;0.85;;;0.40;;
58091;SDS011;43896;48.178;11.578;2023-04-24T02:22:13;0.90;;;0.30;;
58091;SDS011;43896;48.178;11.578;2023-04-24T02:24:38;1.25;;;0.40;;
58091;SDS011;43896;48.178;11.578;2023-04-24T02:27:04;1.80;;;0.40;;
58091;SDS011;43896;48.178;11.578;2023-04-24T02:29:29;0.77;;;0.20;;
58091;SDS011;43896;48.178;11.578;2023-04-24T02:31:55;0.73;;;0.30;;
58091;SDS011;43896;48.178;11.578;2023-04-24T02:34:20;0.98;;;0.30;;
58091;SDS011;43896;48.178;11.578;2023-04-24T02:36:46;1.02;;;0.30;;
58091;SDS011;43896;48.178;11.578;2023-04-24T02:39:11;1.08;;;0.35;;
58091;SDS011;43896;48.178;11.578;2023-04-24T02:41:38;1.00;;;0.30;;
58091;SDS011;43896;48.178;11.578;2023-04-24T02:44:03;1.00;;;0.38;;
58091;SDS011;43896;48.178;11.578;2023-04-24T02:46:29;1.45;;;0.40;;
58091;SDS011;43896;48.178;11.578;2023-04-24T02:48:55;1.27;;;0.30;;
58091;SDS011;43896;48.178;11.578;2023-04-24T02:51:20;1.75;;;0.30;;
58091;SDS011;43896;48.178;11.578;2023-04-24T02:53:45;1.05;;;0.32;;
58091;SDS011;43896;48.178;11.578;2023-04-24T02:56:11;0.85;;;0.30;;
58091;SDS011;43896;48.178;11.578;2023-04-24T02:58:37;1.70;;;0.30;;
58091;SDS011;43896;48.178;11.578;2023-04-24T03:01:02;0.60;;;0.30;;
58091;SDS011;43896;48.178;11.578;2023-04-24T03:03:28;0.88;;;0.30;;
58091;SDS011;43896;48.178;11.578;2023-04-24T03:05:53;0.40;;;0.20;;
58091;SDS011;43896;48.178;11.578;2023-04-24T03:08:18;0.70;;;0.40;;
58091;SDS011;43896;48.178;11.578;2023-04-24T03:10:44;0.95;;;0.40;;
58091;SDS011;43896;48.178;11.578;2023-04-24T03:13:09;1.05;;;0.30;;
58091;SDS011;43896;48.178;11.578;2023-04-24T03:15:34;0.77;;;0.40;;
58091;SDS011;43896;48.178;11.578;2023-04-24T03:18:00;2.05;;;0.40;;
58091;SDS011;43896;48.178;11.578;2023-04-24T03:20:25;1.63;;;0.40;;
58091;SDS011;43896;48.178;11.578;2023-04-24T03:22:51;1.55;;;0.50;;
58091;SDS011;43896;48.178;11.578;2023-04-24T03:25:16;1.90;;;0.40;;
58091;SDS011;43896;48.178;11.578;2023-04-24T03:27:41;0.80;;;0.40;;
58091;SDS011;43896;48.178;11.578;2023-04-24T03:30:07;1.58;;;0.40;;
58091;SDS011;43896;48.178;11.578;2023-04-24T03:32:32;1.00;;;0.50;;
58091;SDS011;43896;48.178;11.578;2023-04-24T03:34:58;1.20;;;0.50;;
58091;SDS011;43896;48.178;11.578;2023-04-24T03:37:23;2.08;;;0.50;;
58091;SDS011;43896;48.178;11.578;2023-04-24T03:39:48;1.23;;;0.50;;
58091;SDS011;43896;48.178;11.578;2023-04-24T03:42:14;1.27;;;0.40;;
58091;SDS011;43896;48.178;11.578;2023-04-24T03:44:40;1.75;;;0.50;;
58091;SDS011;43896;48.178;11.578;2023-04-24T03:47:05;1.88;;;0.60;;
58091;SDS011;43896;48.178;11.578;2023-04-24T03:49:30;1.30;;;0.50;;
58091;SDS011;43896;48.178;11.578;2023-04-24T03:51:55;0.70;;;0.30;;
58091;SDS011;43896;48.178;11.578;2023-04-24T03:54:21;1.83;;;0.40;;
58091;SDS011;43896;48.178;11.578;2023-04-24T03:56:46;0.65;;;0.35;;
58091;SDS011;43896;48.178;11.578;2023-04-24T03:59:11;1.45;;;0.40;;
58091;SDS011;43896;48.178;11.578;2023-04-24T04:01:38;0.90;;;0.40;;
58091;SDS011;43896;48.178;11.578;2023-04-24T04:04:04;2.13;;;0.40;;
58091;SDS011;43896;48.178;11.578;2023-04-24T04:06:30;1.42;;;0.40;;
58091;SDS011;43896;48.178;11.578;2023-04-24T04:08:58;1.30;;;0.30;;
58091;SDS011;43896;48.178;11.578;2023-04-24T04:11:23;1.08;;;0.40;;
58091;SDS011;43896;48.178;11.578;2023-04-24T04:13:49;1.88;;;0.47;;
58091;SDS011;43896;48.178;11.578;2023-04-24T04:16:15;0.95;;;0.50;;
58091;SDS011;43896;48.178;11.578;2023-04-24T04:18:43;1.00;;;0.60;;
58091;SDS011;43896;48.178;11.578;2023-04-24T04:21:09;1.35;;;0.50;;
58091;SDS011;43896;48.178;11.578;2023-04-24T04:23:34;2.28;;;0.50;;
58091;SDS011;43896;48.178;11.578;2023-04-24T04:25:59;1.90;;;0.43;;
58091;SDS011;43896;48.178;11.578;2023-04-24T04:28:26;1.90;;;0.60;;
58091;SDS011;43896;48.178;11.578;2023-04-24T04:30:51;1.85;;;0.50;;
58091;SDS011;43896;48.178;11.578;2023-04-24T04:33:20;1.10;;;0.40;;
58091;SDS011;43896;48.178;11.578;2023-04-24T04:35:46;0.95;;;0.32;;
58091;SDS011;43896;48.178;11.578;2023-04-24T04:38:16;1.08;;;0.30;;
58091;SDS011;43896;48.178;11.578;2023-04-24T04:40:42;2.00;;;0.40;;
58091;SDS011;43896;48.178;11.578;2023-04-24T04:43:08;1.42;;;0.40;;
58091;SDS011;43896;48.178;11.578;2023-04-24T04:45:35;1.75;;;0.40;;
58091;SDS011;43896;48.178;11.578;2023-04-24T04:48:00;1.23;;;0.30;;
58091;SDS011;43896;48.178;11.578;2023-04-24T04:50:27;1.20;;;0.50;;
58091;SDS011;43896;48.178;11.578;2023-04-24T04:52:52;2.83;;;0.50;;
58091;SDS011;43896;48.178;11.578;2023-04-24T04:55:18;1.23;;;0.40;;
58091;SDS011;43896;48.178;11.578;2023-04-24T04:57:45;3.22;;;0.52;;
58091;SDS011;43896;48.178;11.578;2023-04-24T05:00:11;1.92;;;0.50;;
58091;SDS011;43896;48.178;11.578;2023-04-24T05:02:37;1.58;;;0.40;;
58091;SDS011;43896;48.178;11.578;2023-04-24T05:05:02;1.42;;;0.40;;
58091;SDS011;43896;48.178;11.578;2023-04-24T05:07:28;0.75;;;0.40;;
58091;SDS011;43896;48.178;11.578;2023-04-24T05:09:53;1.52;;;0.50;;
58091;SDS011;43896;48.178;11.578;2023-04-24T05:12:18;1.70;;;0.50;;
58091;SDS011;43896;48.178;11.578;2023-04-24T05:14:44;0.82;;;0.40;;
58091;SDS011;43896;48.178;11.578;2023-04-24T05:17:09;0.73;;;0.40;;
58091;SDS011;43896;48.178;11.578;2023-04-24T05:19:34;1.52;;;0.40;;
58091;SDS011;43896;48.178;11.578;2023-04-24T05:22:02;1.65;;;0.45;;
58091;SDS011;43896;48.178;11.578;2023-04-24T05:24:29;1.92;;;0.40;;
58091;SDS011;43896;48.178;11.578;2023-04-24T05:26:54;2.10;;;0.40;;
58091;SDS011;43896;48.178;11.578;2023-04-24T05:29:20;1.35;;;0.45;;
58091;SDS011;43896;48.178;11.578;2023-04-24T05:31:46;1.10;;;0.30;;
58091;SDS011;43896;48.178;11.578;2023-04-24T05:34:11;1.98;;;0.40;;
58091;SDS011;43896;48.178;11.578;2023-04-24T05:36:37;1.48;;;0.50;;
58091;SDS011;43896;48.178;11.578;2023-04-24T05:39:02;2.17;;;0.40;;
58091;SDS011;43896;48.178;11.578;2023-04-24T05:41:29;1.33;;;0.50;;
58091;SDS011;43896;48.178;11.578;2023-04-24T05:43:55;1.50;;;0.40;;
58091;SDS011;43896;48.178;11.578;2023-04-24T05:46:20;1.08;;;0.70;;
58091;SDS011;43896;48.178;11.578;2023-04-24T05:48:45;1.65;;;0.40;;
58091;SDS011;43896;48.178;11.578;2023-04-24T05:51:11;1.65;;;0.47;;
58091;SDS011;43896;48.178;11.578;2023-04-24T05:53:36;1.60;;;0.40;;
58091;SDS011;43896;48.178;11.578;2023-04-24T05:56:01;1.10;;;0.45;;
58091;SDS011;43896;48.178;11.578;2023-04-24T05:58:27;0.98;;;0.40;;
58091;SDS011;43896;48.178;11.578;2023-04-24T06:00:52;1.05;;;0.30;;
58091;SDS011;43896;48.178;11.578;2023-04-24T06:03:18;0.88;;;0.40;;
58091;SDS011;43896;48.178;11.578;2023-04-24T06:05:43;0.90;;;0.30;;
58091;SDS011;43896;48.178;11.578;2023-04-24T06:08:09;2.85;;;0.60;;
58091;SDS011;43896;48.178;11.578;2023-04-24T06:10:34;1.50;;;0.40;;
58091;SDS011;43896;48.178;11.578;2023-04-24T06:13:00;1.70;;;0.28;;
58091;SDS011;43896;48.178;11.578;2023-04-24T06:15:27;1.05;;;0.30;;
58091;SDS011;43896;48.178;11.578;2023-04-24T06:17:53;1.00;;;0.40;;
58091;SDS011;43896;48.178;11.578;2023-04-24T06:20:19;1.45;;;0.40;;
58091;SDS011;43896;48.178;11.578;2023-04-24T06:22:45;1.05;;;0.38;;
58091;SDS011;43896;48.178;11.578;2023-04-24T06:25:15;1.08;;;0.30;;
58091;SDS011;43896;48.178;11.578;2023-04-24T06:27:40;1.00;;;0.30;;
58091;SDS011;43896;48.178;11.578;2023-04-24T06:30:06;1.02;;;0.30;;
58091;SDS011;43896;48.178;11.578;2023-04-24T06:32:32;1.90;;;0.50;;
58091;SDS011;43896;48.178;11.578;2023-04-24T06:34:57;2.30;;;0.50;;
58091;SDS011;43896;48.178;11.578;2023-04-24T06:37:23;1.75;;;0.30;;
58091;SDS011;43896;48.178;11.578;2023-04-24T06:39:48;1.20;;;0.28;;
58091;SDS011;43896;48.178;11.578;2023-04-24T06:42:14;1.50;;;0.40;;
58091;SDS011;43896;48.178;11.578;2023-04-24T06:44:39;1.38;;;0.20;;
58091;SDS011;43896;48.178;11.578;2023-04-24T06:47:08;1.30;;;0.30;;
58091;SDS011;43896;48.178;11.578;2023-04-24T06:49:38;0.95;;;0.30;;
58091;SDS011;43896;48.178;11.578;2023-04-24T06:52:04;0.63;;;0.20;;
58091;SDS011;43896;48.178;11.578;2023-04-24T06:54:30;0.73;;;0.30;;
58091;SDS011;43896;48.178;11.578;2023-04-24T06:56:56;1.50;;;0.30;;
58091;SDS011;43896;48.178;11.578;2023-04-24T06:59:22;1.42;;;0.30;;
58091;SDS011;43896;48.178;11.578;2023-04-24T07:01:48;1.15;;;0.30;;
58091;SDS011;43896;48.178;11.578;2023-04-24T07:04:14;0.90;;;0.25;;
58091;SDS011;43896;48.178;11.578;2023-04-24T07:06:39;1.00;;;0.30;;
58091;SDS011;43896;48.178;11.578;2023-04-24T07:09:04;1.38;;;0.45;;
58091;SDS011;43896;48.178;11.578;2023-04-24T07:11:30;1.13;;;0.20;;
58091;SDS011;43896;48.178;11.578;2023-04-24T07:13:55;0.77;;;0.20;;
58091;SDS011;43896;48.178;11.578;2023-04-24T07:16:21;0.57;;;0.20;;
58091;SDS011;43896;48.178;11.578;2023-04-24T07:18:46;1.13;;;0.35;;
58091;SDS011;43896;48.178;11.578;2023-04-24T07:21:12;1.42;;;0.30;;
58091;SDS011;43896;48.178;11.578;2023-04-24T07:23:37;0.80;;;0.20;;
58091;SDS011;43896;48.178;11.578;2023-04-24T07:26:02;0.63;;;0.25;;
58091;SDS011;43896;48.178;11.578;2023-04-24T07:28:28;0.85;;;0.20;;
58091;SDS011;43896;48.178;11.578;2023-04-24T07:30:56;0.75;;;0.35;;
58091;SDS011;43896;48.178;11.578;2023-04-24T07:33:22;0.68;;;0.30;;
58091;SDS011;43896;48.178;11.578;2023-04-24T07:35:47;1.25;;;0.30;;
58091;SDS011;43896;48.178;11.578;2023-04-24T07:38:13;2.00;;;0.30;;
58091;SDS011;43896;48.178;11.578;2023-04-24T07:40:38;1.65;;;0.22;;
58091;SDS011;43896;48.178;11.578;2023-04-24T07:43:03;0.52;;;0.38;;
58091;SDS011;43896;48.178;11.578;2023-04-24T07:45:29;1.30;;;0.40;;
58091;SDS011;43896;48.178;11.578;2023-04-24T07:47:54;1.00;;;0.30;;
58091;SDS011;43896;48.178;11.578;2023-04-24T07:50:19;1.30;;;0.20;;
58091;SDS011;43896;48.178;11.578;2023-04-24T07:52:45;0.88;;;0.40;;
58091;SDS011;43896;48.178;11.578;2023-04-24T07:55:10;0.22;;;0.20;;
58091;SDS011;43896;48.178;11.578;2023-04-24T07:57:36;1.17;;;0.30;;
58091;SDS011;43896;48.178;11.578;2023-04-24T08:00:02;1.42;;;0.30;;
58091;SDS011;43896;48.178;11.578;2023-04-24T08:02:31;1.42;;;0.30;;
58091;SDS011;43896;48.178;11.578;2023-04-24T08:04:56;0.30;;;0.20;;
58091;SDS011;43896;48.178;11.578;2023-04-24T08:07:22;0.73;;;0.30;;
58091;SDS011;43896;48.178;11.578;2023-04-24T08:09:48;3.47;;;0.30;;
58091;SDS011;43896;48.178;11.578;2023-04-24T08:12:14;1.42;;;0.40;;
58091;SDS011;43896;48.178;11.578;2023-04-24T08:14:39;1.23;;;0.30;;
58091;SDS011;43896;48.178;11.578;2023-04-24T08:17:05;0.80;;;0.40;;
58091;SDS011;43896;48.178;11.578;2023-04-24T08:19:30;1.63;;;0.38;;
58091;SDS011;43896;48.178;11.578;2023-04-24T08:21:55;1.27;;;0.40;;
58091;SDS011;43896;48.178;11.578;2023-04-24T08:24:22;1.65;;;0.38;;
58091;SDS011;43896;48.178;11.578;2023-04-24T08:26:48;0.95;;;0.30;;
58091;SDS011;43896;48.178;11.578;2023-04-24T08:29:17;0.95;;;0.32;;
58091;SDS011;43896;48.178;11.578;2023-04-24T08:31:42;1.58;;;0.40;;
58091;SDS011;43896;48.178;11.578;2023-04-24T08:34:08;2.88;;;0.40;;
58091;SDS011;43896;48.178;11.578;2023-04-24T08:36:34;1.77;;;0.60;;
58091;SDS011;43896;48.178;11.578;2023-04-24T08:39:00;0.90;;;0.30;;
58091;SDS011;43896;48.178;11.578;2023-04-24T08:41:25;2.17;;;0.30;;
58091;SDS011;43896;48.178;11.578;2023-04-24T08:43:52;1.45;;;0.40;;
58091;SDS011;43896;48.178;11.578;2023-04-24T08:46:18;1.13;;;0.50;;
58091;SDS011;43896;48.178;11.578;2023-04-24T08:48:44;1.80;;;0.60;;
58091;SDS011;43896;48.178;11.578;2023-04-24T08:51:10;1.63;;;0.60;;
58091;SDS011;43896;48.178;11.578;2023-04-24T08:53:36;1.52;;;0.60;;
58091;SDS011;43896;48.178;11.578;2023-04-24T08:56:02;1.70;;;0.60;;
58091;SDS011;43896;48.178;11.578;2023-04-24T08:58:28;2.00;;;0.70;;
58091;SDS011;43896;48.178;11.578;2023-04-24T09:00:54;2.13;;;0.73;;
58091;SDS011;43896;48.178;11.578;2023-04-24T09:03:20;1.65;;;0.80;;
58091;SDS011;43896;48.178;11.578;2023-04-24T09:05:47;1.92;;;0.90;;
58091;SDS011;43896;48.178;11.578;2023-04-24T09:08:14;3.47;;;0.80;;
58091;SDS011;43896;48.178;11.578;2023-04-24T09:10:42;3.95;;;0.93;;
58091;SDS011;43896;48.178;11.578;2023-04-24T09:13:07;3.38;;;1.00;;
58091;SDS011;43896;48.178;11.578;2023-04-24T09:15:36;2.20;;;0.90;;
58091;SDS011;43896;48.178;11.578;2023-04-24T09:18:04;2.03;;;0.93;;
58091;SDS011;43896;48.178;11.578;2023-04-24T09:20:30;3.30;;;0.90;;
58091;SDS011;43896;48.178;11.578;2023-04-24T09:22:59;2.50;;;0.80;;
58091;SDS011;43896;48.178;11.578;2023-04-24T09:25:34;2.50;;;1.00;;
58091;SDS011;43896;48.178;11.578;2023-04-24T09:28:03;2.28;;;0.93;;
58091;SDS011;43896;48.178;11.578;2023-04-24T09:33:14;2.00;;;0.93;;
58091;SDS011;43896;48.178;11.578;2023-04-24T09:35:50;1.90;;;0.80;;
58091;SDS011;43896;48.178;11.578;2023-04-24T09:38:16;1.92;;;0.90;;
58091;SDS011;43896;48.178;11.578;2023-04-24T09:40:42;2.65;;;1.00;;
58091;SDS011;43896;48.178;11.578;2023-04-24T09:43:10;2.25;;;0.90;;
58091;SDS011;43896;48.178;11.578;2023-04-24T09:45:36;3.10;;;1.20;;
58091;SDS011;43896;48.178;11.578;2023-04-24T09:48:02;4.18;;;1.08;;
58091;SDS011;43896;48.178;11.578;2023-04-24T09:50:29;2.50;;;1.00;;
58091;SDS011;43896;48.178;11.578;2023-04-24T09:53:02;4.05;;;1.10;;
58091;SDS011;43896;48.178;11.578;2023-04-24T09:55:30;2.05;;;0.93;;
58091;SDS011;43896;48.178;11.578;2023-04-24T09:57:56;2.13;;;1.10;;
58091;SDS011;43896;48.178;11.578;2023-04-24T10:00:25;4.10;;;1.20;;
58091;SDS011;43896;48.178;11.578;2023-04-24T10:02:59;2.92;;;1.02;;
58091;SDS011;43896;48.178;11.578;2023-04-24T10:05:27;3.85;;;1.30;;
58091;SDS011;43896;48.178;11.578;2023-04-24T10:07:58;1.98;;;0.95;;
58091;SDS011;43896;48.178;11.578;2023-04-24T10:10:25;2.17;;;1.10;;
58091;SDS011;43896;48.178;11.578;2023-04-24T10:12:50;2.75;;;1.08;;
58091;SDS011;43896;48.178;11.578;2023-04-24T10:15:16;2.72;;;1.10;;
58091;SDS011;43896;48.178;11.578;2023-04-24T10:17:45;3.22;;;1.23;;
58091;SDS011;43896;48.178;11.578;2023-04-24T10:20:17;1.77;;;1.02;;
58091;SDS011;43896;48.178;11.578;2023-04-24T10:22:44;2.33;;;1.10;;
58091;SDS011;43896;48.178;11.578;2023-04-24T10:25:14;2.58;;;1.20;;
58091;SDS011;43896;48.178;11.578;2023-04-24T10:27:41;2.60;;;1.30;;
58091;SDS011;43896;48.178;11.578;2023-04-24T10:30:07;2.15;;;1.00;;
58091;SDS011;43896;48.178;11.578;2023-04-24T10:32:33;2.50;;;1.20;;
58091;SDS011;43896;48.178;11.578;2023-04-24T10:34:59;3.50;;;1.10;;
58091;SDS011;43896;48.178;11.578;2023-04-24T10:37:24;3.33;;;1.35;;
58091;SDS011;43896;48.178;11.578;2023-04-24T10:39:51;2.40;;;1.08;;
58091;SDS011;43896;48.178;11.578;2023-04-24T10:42:19;2.85;;;1.10;;
58091;SDS011;43896;48.178;11.578;2023-04-24T10:44:47;2.35;;;1.20;;
58091;SDS011;43896;48.178;11.578;2023-04-24T10:47:13;1.88;;;1.10;;
58091;SDS011;43896;48.178;11.578;2023-04-24T10:49:39;2.55;;;0.90;;
58091;SDS011;43896;48.178;11.578;2023-04-24T10:52:05;5.30;;;1.05;;
58091;SDS011;43896;48.178;11.578;2023-04-24T10:54:34;3.20;;;1.45;;
58091;SDS011;43896;48.178;11.578;2023-04-24T10:59:45;2.20;;;0.63;;
58091;SDS011;43896;48.178;11.578;2023-04-24T11:02:14;2.15;;;0.80;;
58091;SDS011;43896;48.178;11.578;2023-04-24T11:04:40;2.75;;;0.93;;
58091;SDS011;43896;48.178;11.578;2023-04-24T11:07:06;1.98;;;0.80;;
58091;SDS011;43896;48.178;11.578;2023-04-24T11:09:31;2.20;;;0.80;;
58091;SDS011;43896;48.178;11.578;2023-04-24T11:12:06;2.47;;;0.90;;
58091;SDS011;43896;48.178;11.578;2023-04-24T11:17:30;2.45;;;0.82;;
58091;SDS011;43896;48.178;11.578;2023-04-24T11:20:04;2.20;;;0.70;;
58091;SDS011;43896;48.178;11.578;2023-04-24T11:22:41;2.50;;;0.80;;
58091;SDS011;43896;48.178;11.578;2023-04-24T11:25:06;2.35;;;1.00;;
58091;SDS011;43896;48.178;11.578;2023-04-24T11:27:38;1.80;;;0.80;;
58091;SDS011;43896;48.178;11.578;2023-04-24T11:30:16;2.95;;;1.00;;
58091;SDS011;43896;48.178;11.578;2023-04-24T11:32:43;3.92;;;1.40;;
58091;SDS011;43896;48.178;11.578;2023-04-24T11:37:43;2.35;;;1.00;;
58091;SDS011;43896;48.178;11.578;2023-04-24T11:40:17;2.22;;;1.00;;
58091;SDS011;43896;48.178;11.578;2023-04-24T11:42:46;1.30;;;0.80;;
58091;SDS011;43896;48.178;11.578;2023-04-24T11:45:13;1.30;;;0.60;;
58091;SDS011;43896;48.178;11.578;2023-04-24T11:47:42;1.65;;;0.73;;
58091;SDS011;43896;48.178;11.578;2023-04-24T11:50:09;1.30;;;0.63;;
58091;SDS011;43896;48.178;11.578;2023-04-24T11:52:40;3.92;;;0.65;;
58091;SDS011;43896;48.178;11.578;2023-04-24T11:55:28;2.10;;;0.80;;
58091;SDS011;43896;48.178;11.578;2023-04-24T11:57:54;1.50;;;0.80;;
58091;SDS011;43896;48.178;11.578;2023-04-24T12:00:28;3.40;;;0.90;;
58091;SDS011;43896;48.178;11.578;2023-04-24T12:03:13;1.48;;;0.70;;
58091;SDS011;43896;48.178;11.578;2023-04-24T12:05:39;1.73;;;0.80;;
58091;SDS011;43896;48.178;11.578;2023-04-24T12:08:09;1.50;;;0.82;;
58091;SDS011;43896;48.178;11.578;2023-04-24T12:10:34;2.05;;;0.93;;
58091;SDS011;43896;48.178;11.578;2023-04-24T12:13:00;1.70;;;0.90;;
58091;SDS011;43896;48.178;11.578;2023-04-24T12:15:25;1.92;;;1.00;;
58091;SDS011;43896;48.178;11.578;2023-04-24T12:17:52;2.92;;;1.20;;
58091;SDS011;43896;48.178;11.578;2023-04-24T12:20:23;2.38;;;1.10;;
58091;SDS011;43896;48.178;11.578;2023-04-24T12:22:53;2.85;;;1.15;;
58091;SDS011;43896;48.178;11.578;2023-04-24T12:25:23;3.88;;;1.10;;
58091;SDS011;43896;48.178;11.578;2023-04-24T12:27:54;3.70;;;1.10;;
58091;SDS011;43896;48.178;11.578;2023-04-24T12:30:21;3.40;;;0.90;;
58091;SDS011;43896;48.178;11.578;2023-04-24T12:32:51;3.00;;;1.00;;
58091;SDS011;43896;48.178;11.578;2023-04-24T12:35:20;2.28;;;1.00;;
58091;SDS011;43896;48.178;11.578;2023-04-24T12:37:47;2.50;;;1.00;;
58091;SDS011;43896;48.178;11.578;2023-04-24T12:40:12;2.88;;;1.10;;
58091;SDS011;43896;48.178;11.578;2023-04-24T12:42:42;3.05;;;1.00;;
58091;SDS011;43896;48.178;11.578;2023-04-24T12:45:09;2.55;;;1.10;;
58091;SDS011;43896;48.178;11.578;2023-04-24T12:47:36;3.13;;;0.90;;
58091;SDS011;43896;48.178;11.578;2023-04-24T12:50:02;5.07;;;0.90;;
58091;SDS011;43896;48.178;11.578;2023-04-24T12:52:28;2.13;;;0.82;;
58091;SDS011;43896;48.178;11.578;2023-04-24T12:54:56;3.90;;;1.40;;
58091;SDS011;43896;48.178;11.578;2023-04-24T12:57:23;2.55;;;1.00;;
58091;SDS011;43896;48.178;11.578;2023-04-24T12:59:49;3.60;;;1.00;;
58091;SDS011;43896;48.178;11.578;2023-04-24T13:02:14;3.20;;;1.20;;
58091;SDS011;43896;48.178;11.578;2023-04-24T13:04:43;3.65;;;1.20;;
58091;SDS011;43896;48.178;11.578;2023-04-24T13:07:09;2.92;;;1.10;;
58091;SDS011;43896;48.178;11.578;2023-04-24T13:09:35;2.63;;;0.90;;
58091;SDS011;43896;48.178;11.578;2023-04-24T13:12:01;6.10;;;1.02;;
58091;SDS011;43896;48.178;11.578;2023-04-24T13:14:26;2.85;;;1.10;;
58091;SDS011;43896;48.178;11.578;2023-04-24T13:16:52;3.83;;;1.30;;
58091;SDS011;43896;48.178;11.578;2023-04-24T13:19:17;3.47;;;1.40;;
58091;SDS011;43896;48.178;11.578;2023-04-24T13:21:43;2.92;;;1.20;;
58091;SDS011;43896;48.178;11.578;2023-04-24T13:24:09;3.33;;;1.40;;
58091;SDS011;43896;48.178;11.578;2023-04-24T13:26:35;3.60;;;1.60;;
58091;SDS011;43896;48.178;11.578;2023-04-24T13:29:00;3.33;;;1.33;;
58091;SDS011;43896;48.178;11.578;2023-04-24T13:31:25;4.05;;;1.50;;
58091;SDS011;43896;48.178;11.578;2023-04-24T13:33:51;4.32;;;1.55;;
58091;SDS011;43896;48.178;11.578;2023-04-24T13:36:16;3.58;;;1.30;;
58091;SDS011;43896;48.178;11.578;2023-04-24T13:38:42;2.60;;;1.10;;
58091;SDS011;43896;48.178;11.578;2023-04-24T13:41:08;2.95;;;1.30;;
58091;SDS011;43896;48.178;11.578;2023-04-24T13:43:33;6.25;;;1.30;;
58091;SDS011;43896;48.178;11.578;2023-04-24T13:45:59;3.45;;;1.10;;
58091;SDS011;43896;48.178;11.578;2023-04-24T13:48:26;3.97;;;1.40;;
58091;SDS011;43896;48.178;11.578;2023-04-24T13:50:52;3.58;;;1.30;;
58091;SDS011;43896;48.178;11.578;2023-04-24T13:53:17;4.00;;;1.58;;
58091;SDS011;43896;48.178;11.578;2023-04-24T13:55:42;3.58;;;1.33;;
58091;SDS011;43896;48.178;11.578;2023-04-24T13:58:07;3.95;;;1.40;;
58091;SDS011;43896;48.178;11.578;2023-04-24T14:00:33;2.80;;;1.17;;
58091;SDS011;43896;48.178;11.578;2023-04-24T14:02:58;6.18;;;1.40;;
58091;SDS011;43896;48.178;11.578;2023-04-24T14:05:23;4.07;;;1.20;;
58091;SDS011;43896;48.178;11.578;2023-04-24T14:07:50;2.95;;;1.30;;
58091;SDS011;43896;48.178;11.578;2023-04-24T14:10:15;2.72;;;1.10;;
58091;SDS011;43896;48.178;11.578;2023-04-24T14:12:41;2.17;;;1.10;;
58091;SDS011;43896;48.178;11.578;2023-04-24T14:15:06;2.78;;;1.23;;
58091;SDS011;43896;48.178;11.578;2023-04-24T14:17:33;4.05;;;1.30;;
58091;SDS011;43896;48.178;11.578;2023-04-24T14:19:58;3.72;;;1.23;;
58091;SDS011;43896;48.178;11.578;2023-04-24T14:22:25;3.35;;;1.20;;
58091;SDS011;43896;48.178;11.578;2023-04-24T14:24:51;3.22;;;1.30;;
58091;SDS011;43896;48.178;11.578;2023-04-24T14:27:16;2.47;;;1.10;;
58091;SDS011;43896;48.178;11.578;2023-04-24T14:29:42;3.83;;;1.35;;
58091;SDS011;43896;48.178;11.578;2023-04-24T14:32:07;4.15;;;1.35;;
58091;SDS011;43896;48.178;11.578;2023-04-24T14:34:34;3.33;;;1.20;;
58091;SDS011;43896;48.178;11.578;2023-04-24T14:36:59;3.63;;;1.38;;
58091;SDS011;43896;48.178;11.578;2023-04-24T14:39:25;4.10;;;1.30;;